Time;durP1;ratioP1;P1;durP2;ratioP2;P2;SDS_P1;SDS_P2;PMS_P1;PMS_P2;Temp;Humidity;BMP_temperature;BMP_pressure;BME280_temperature;BME280_humidity;BME280_pressure;Samples;Min_cycle;Max_cycle;Signal;HPM_P1;HPM_P2
2023/03/12 00:00:57;;;;;;;13.93;6.50;;;;;;;3.70;55.30;100312.59;5074266;28;20208;-68
2023/03/12 00:03:25;;;;;;;12.20;6.43;;;;;;;3.70;55.45;100308.19;5076092;28;20314;-66
2023/03/12 00:05:52;;;;;;;15.50;6.17;;;;;;;3.81;55.19;100310.06;5075527;28;21088;-66
2023/03/12 00:08:20;;;;;;;13.97;6.13;;;;;;;3.82;54.79;100309.13;5073526;28;20212;-66
2023/03/12 00:10:48;;;;;;;10.40;5.53;;;;;;;3.87;55.18;100320.09;5075846;28;20217;-68
2023/03/12 00:13:15;;;;;;;12.80;5.77;;;;;;;3.98;54.70;100325.44;5078011;28;20581;-66
2023/03/12 00:15:43;;;;;;;17.90;6.07;;;;;;;3.82;55.24;100316.13;5072974;28;20308;-66
2023/03/12 00:18:12;;;;;;;12.83;6.40;;;;;;;3.73;55.57;100320.25;5075708;28;20207;-66
2023/03/12 00:20:40;;;;;;;13.67;6.57;;;;;;;3.82;55.16;100324.00;5073058;28;20231;-66
2023/03/12 00:23:08;;;;;;;16.30;7.13;;;;;;;3.78;55.55;100320.78;5074646;28;20217;-66
2023/03/12 00:25:36;;;;;;;17.03;5.93;;;;;;;3.83;54.97;100328.31;5074930;28;20268;-65
2023/03/12 00:28:03;;;;;;;13.07;7.40;;;;;;;3.91;55.05;100324.19;5075460;28;20231;-65
2023/03/12 00:30:31;;;;;;;14.77;7.17;;;;;;;3.90;55.10;100327.75;5076698;28;20211;-67
2023/03/12 00:32:59;;;;;;;17.70;6.80;;;;;;;3.82;55.32;100329.25;5076245;28;20746;-67
2023/03/12 00:35:28;;;;;;;14.97;7.10;;;;;;;3.73;55.38;100331.59;5073941;28;20231;-66
2023/03/12 00:37:55;;;;;;;17.37;7.50;;;;;;;3.71;55.36;100330.00;5073112;28;20360;-67
2023/03/12 00:40:23;;;;;;;13.33;6.90;;;;;;;3.69;55.79;100342.41;5073557;28;20695;-67
2023/03/12 00:42:51;;;;;;;21.70;7.23;;;;;;;3.72;55.65;100334.31;5075433;28;20225;-67
2023/03/12 00:45:18;;;;;;;15.90;7.37;;;;;;;3.69;56.36;100345.03;5074918;28;20215;-66
2023/03/12 00:47:46;;;;;;;14.33;7.33;;;;;;;3.79;56.08;100330.31;5074159;28;20641;-66
2023/03/12 00:50:14;;;;;;;16.43;6.87;;;;;;;3.81;55.89;100323.16;5073164;28;20624;-66
2023/03/12 00:52:43;;;;;;;16.40;7.23;;;;;;;3.83;55.86;100326.53;5073988;28;20221;-68
2023/03/12 00:55:11;;;;;;;20.80;7.87;;;;;;;3.91;55.47;100329.44;5076462;28;20236;-66
2023/03/12 00:57:39;;;;;;;15.63;6.73;;;;;;;3.95;55.29;100323.03;5073480;28;20341;-66
2023/03/12 01:00:09;;;;;;;12.30;5.90;;;;;;;3.88;55.27;100324.41;5072412;28;20230;-66
2023/03/12 01:02:37;;;;;;;11.80;6.30;;;;;;;3.87;55.43;100322.72;5074199;28;20211;-66
2023/03/12 01:05:07;;;;;;;16.33;6.70;;;;;;;3.87;55.74;100327.97;5073543;28;20207;-66
2023/03/12 01:07:35;;;;;;;15.90;7.40;;;;;;;3.74;56.80;100327.19;5073456;28;21010;-66
2023/03/12 01:10:05;;;;;;;18.33;7.30;;;;;;;3.67;57.16;100321.53;5069424;28;20219;-67
2023/03/12 01:12:33;;;;;;;13.37;6.27;;;;;;;3.64;57.16;100320.91;5073732;28;20219;-66
2023/03/12 01:15:01;;;;;;;16.43;7.70;;;;;;;3.71;56.93;100317.72;5073326;28;20712;-66
2023/03/12 01:17:28;;;;;;;19.63;8.43;;;;;;;3.69;56.82;100314.38;5076446;28;20204;-66
2023/03/12 01:19:56;;;;;;;24.03;10.20;;;;;;;3.77;56.80;100311.25;5073812;28;20207;-66
2023/03/12 01:22:25;;;;;;;20.77;7.10;;;;;;;3.79;56.51;100318.03;5077399;28;20216;-66
2023/03/12 01:24:53;;;;;;;13.07;7.50;;;;;;;3.86;55.81;100321.06;5075735;28;20205;-65
2023/03/12 01:27:22;;;;;;;13.47;6.27;;;;;;;3.86;55.44;100320.25;5076233;28;20246;-67
2023/03/12 01:29:50;;;;;;;10.63;6.20;;;;;;;3.90;55.57;100319.91;5077718;28;20215;-65
2023/03/12 01:32:18;;;;;;;30.33;10.50;;;;;;;3.77;56.57;100326.97;5076521;28;20234;-65
2023/03/12 01:34:45;;;;;;;23.07;9.23;;;;;;;3.66;57.02;100329.50;5077825;28;20359;-65
2023/03/12 01:37:13;;;;;;;15.67;7.53;;;;;;;3.66;56.93;100326.88;5076366;28;20560;-66
2023/03/12 01:39:41;;;;;;;19.60;7.77;;;;;;;3.77;56.63;100326.97;5078357;28;20212;-67
2023/03/12 01:42:09;;;;;;;20.17;9.53;;;;;;;3.96;55.65;100329.94;5078275;28;20220;-66
2023/03/12 01:44:52;;;;;;;16.13;7.37;;;;;;;4.05;55.28;100316.16;5078811;28;20781;-67
2023/03/12 01:47:20;;;;;;;19.07;8.10;;;;;;;4.12;55.45;100317.44;5078669;28;20208;-66
2023/03/12 01:49:50;;;;;;;15.70;6.60;;;;;;;4.15;55.19;100309.31;5077682;28;20239;-67
2023/03/12 01:52:21;;;;;;;16.17;6.70;;;;;;;4.22;54.66;100306.25;5076686;28;20683;-66
2023/03/12 01:54:54;;;;;;;17.70;7.00;;;;;;;4.20;54.68;100311.63;5075645;28;20642;-66
2023/03/12 01:57:26;;;;;;;16.40;7.80;;;;;;;4.08;55.43;100305.47;5080554;28;20688;-68
2023/03/12 02:00:00;;;;;;;17.43;7.07;;;;;;;3.85;56.27;100303.66;5075619;28;20688;-67
2023/03/12 02:02:28;;;;;;;15.00;7.53;;;;;;;3.86;56.30;100297.47;5078140;28;20589;-67
2023/03/12 02:05:03;;;;;;;11.37;6.53;;;;;;;3.90;56.42;100303.31;5077995;28;20244;-67
2023/03/12 02:07:31;;;;;;;16.40;6.90;;;;;;;3.82;57.01;100296.00;5078222;28;20715;-66
2023/03/12 02:09:59;;;;;;;14.77;7.23;;;;;;;3.75;57.46;100284.28;5076784;28;20212;-67
2023/03/12 02:12:26;;;;;;;15.33;7.60;;;;;;;3.79;57.66;100293.59;5078351;28;20215;-66
2023/03/12 02:14:55;;;;;;;15.37;7.20;;;;;;;3.74;57.48;100290.47;5077844;28;20219;-66
2023/03/12 02:17:23;;;;;;;16.20;6.50;;;;;;;3.69;57.36;100292.59;5074643;28;20218;-66
2023/03/12 02:19:59;;;;;;;12.70;6.20;;;;;;;3.72;57.68;100287.09;5075414;28;20208;-66
2023/03/12 02:22:29;;;;;;;12.20;5.93;;;;;;;3.84;57.00;100281.00;5076042;28;20290;-65
2023/03/12 02:25:02;;;;;;;12.03;6.07;;;;;;;3.92;56.59;100283.06;5079290;28;20212;-69
2023/03/12 02:27:33;;;;;;;11.63;5.40;;;;;;;3.84;56.98;100282.78;5075683;28;20205;-68
2023/03/12 02:30:05;;;;;;;15.07;6.43;;;;;;;3.95;56.56;100282.84;5080197;28;20211;-67
2023/03/12 02:32:38;;;;;;;14.87;6.30;;;;;;;4.00;56.00;100275.47;5078306;28;20307;-67
2023/03/12 02:35:06;;;;;;;12.33;6.57;;;;;;;4.00;56.03;100278.94;5076154;28;20209;-66
2023/03/12 02:37:48;;;;;;;13.17;6.03;;;;;;;3.87;57.08;100280.75;5076407;28;20999;-67
2023/03/12 02:40:22;;;;;;;17.37;5.73;;;;;;;3.85;57.11;100272.19;5077430;28;20212;-66
2023/03/12 02:42:52;;;;;;;21.53;6.70;;;;;;;4.03;56.53;100273.47;5076174;28;20220;-66
2023/03/12 02:45:20;;;;;;;14.53;6.27;;;;;;;4.14;55.85;100268.25;5076403;28;20212;-67
2023/03/12 02:47:47;;;;;;;12.60;6.50;;;;;;;4.21;55.61;100279.19;5077541;28;21389;-67
2023/03/12 02:50:16;;;;;;;11.23;5.83;;;;;;;4.14;55.73;100276.13;5075556;28;20266;-69
2023/03/12 02:52:43;;;;;;;13.73;6.73;;;;;;;4.11;56.04;100268.50;5080616;28;20217;-65
2023/03/12 02:55:11;;;;;;;14.60;6.63;;;;;;;4.03;56.31;100260.34;5079035;28;20274;-66
2023/03/12 02:57:39;;;;;;;13.97;7.13;;;;;;;4.06;56.32;100265.38;5074641;28;20204;-66
2023/03/12 03:00:11;;;;;;;17.00;7.70;;;;;;;4.14;55.66;100263.00;5074866;28;20212;-65
2023/03/12 03:02:39;;;;;;;13.13;7.03;;;;;;;4.15;55.49;100259.44;5074457;28;20701;-65
2023/03/12 03:05:09;;;;;;;14.20;6.50;;;;;;;4.22;55.42;100257.22;5075019;28;20213;-64
2023/03/12 03:07:37;;;;;;;13.83;6.23;;;;;;;4.24;55.39;100267.59;5074918;28;20272;-67
2023/03/12 03:10:06;;;;;;;15.17;6.73;;;;;;;4.13;55.39;100260.53;5076983;28;20202;-66
2023/03/12 03:12:35;;;;;;;18.33;7.13;;;;;;;4.18;55.39;100262.81;5076126;28;21098;-67
2023/03/12 03:15:05;;;;;;;16.17;7.27;;;;;;;4.26;55.15;100266.53;5076316;28;20340;-67
2023/03/12 03:17:34;;;;;;;16.33;6.57;;;;;;;4.15;55.33;100269.09;5076391;28;20289;-67
2023/03/12 03:20:03;;;;;;;15.57;6.70;;;;;;;4.10;55.70;100266.84;5075734;28;20200;-67
2023/03/12 03:22:34;;;;;;;13.93;6.73;;;;;;;4.01;55.75;100266.66;5075335;28;20209;-65
2023/03/12 03:25:02;;;;;;;16.37;7.60;;;;;;;3.95;56.62;100278.44;5075677;28;20582;-66
2023/03/12 03:27:29;;;;;;;13.13;6.53;;;;;;;3.91;56.86;100278.75;5076554;28;20213;-66
2023/03/12 03:29:57;;;;;;;14.83;6.60;;;;;;;3.91;56.76;100276.13;5075181;28;21189;-66
2023/03/12 03:32:25;;;;;;;14.13;7.07;;;;;;;3.91;56.43;100274.34;5077130;28;20210;-66
2023/03/12 03:34:54;;;;;;;10.03;5.87;;;;;;;3.96;56.25;100280.09;5074570;28;20205;-66
2023/03/12 03:37:22;;;;;;;17.93;7.97;;;;;;;3.98;56.27;100267.72;5076770;28;20237;-64
2023/03/12 03:39:49;;;;;;;15.00;7.10;;;;;;;4.07;56.01;100272.28;5074526;28;20209;-67
2023/03/12 03:42:17;;;;;;;12.77;6.90;;;;;;;4.03;56.21;100270.84;5073668;28;20213;-66
2023/03/12 03:44:45;;;;;;;14.73;6.93;;;;;;;3.95;56.37;100273.19;5073071;28;20207;-65
2023/03/12 03:47:12;;;;;;;15.27;6.60;;;;;;;3.99;56.62;100271.16;5075864;28;20209;-67
2023/03/12 03:49:40;;;;;;;13.93;7.30;;;;;;;4.05;56.50;100273.34;5075307;28;20216;-67
2023/03/12 03:52:09;;;;;;;13.20;5.87;;;;;;;3.97;56.75;100271.28;5074724;28;20211;-68
2023/03/12 03:54:37;;;;;;;14.57;6.93;;;;;;;3.91;57.11;100270.88;5075307;28;20212;-66
2023/03/12 03:57:05;;;;;;;12.30;6.17;;;;;;;3.91;56.79;100269.09;5076579;28;20712;-66
2023/03/12 03:59:32;;;;;;;15.80;6.57;;;;;;;4.03;56.86;100247.25;5076780;28;20217;-66
2023/03/12 04:02:01;;;;;;;12.30;5.37;;;;;;;4.03;56.92;100246.41;5072757;28;20691;-67
2023/03/12 04:04:30;;;;;;;16.13;5.70;;;;;;;3.96;57.01;100242.56;5074471;28;20668;-65
2023/03/12 04:06:57;;;;;;;14.50;6.57;;;;;;;4.21;56.54;100250.31;5074526;28;21058;-66
2023/03/12 04:09:27;;;;;;;18.93;6.13;;;;;;;4.32;55.80;100246.88;5072265;28;20748;-67
2023/03/12 04:11:54;;;;;;;14.53;6.13;;;;;;;4.31;55.63;100242.59;5073564;28;20212;-67
2023/03/12 04:14:22;;;;;;;13.73;6.03;;;;;;;4.32;56.38;100245.06;5074347;28;20220;-66
2023/03/12 04:16:50;;;;;;;12.70;6.27;;;;;;;4.13;56.76;100250.84;5072353;28;20225;-67
2023/03/12 04:19:17;;;;;;;18.20;6.87;;;;;;;4.06;56.83;100252.25;5071739;28;20220;-69
2023/03/12 04:21:45;;;;;;;12.37;6.00;;;;;;;3.97;57.37;100255.53;5070762;28;20212;-66
2023/03/12 04:24:16;;;;;;;15.43;5.77;;;;;;;4.06;57.17;100251.41;5073427;28;20225;-67
2023/03/12 04:26:45;;;;;;;13.57;6.13;;;;;;;4.04;57.36;100254.16;5074374;28;20223;-67
2023/03/12 04:29:12;;;;;;;11.40;5.97;;;;;;;4.12;57.15;100253.59;5072197;28;20675;-67
2023/03/12 04:31:40;;;;;;;12.73;5.93;;;;;;;4.07;57.15;100251.31;5075281;28;20200;-68
2023/03/12 04:34:09;;;;;;;18.70;6.57;;;;;;;3.98;57.80;100251.97;5074977;28;20298;-66
2023/03/12 04:36:40;;;;;;;13.37;5.60;;;;;;;4.02;57.68;100248.19;5074887;28;20674;-66
2023/03/12 04:39:08;;;;;;;13.23;6.37;;;;;;;4.03;58.04;100264.78;5073744;28;20254;-66
2023/03/12 04:41:36;;;;;;;10.60;6.37;;;;;;;4.00;58.06;100264.97;5071144;28;20208;-67
2023/03/12 04:44:06;;;;;;;12.77;5.70;;;;;;;4.02;58.24;100261.31;5074099;28;22165;-66
2023/03/12 04:46:34;;;;;;;11.90;6.00;;;;;;;4.05;58.32;100250.56;5073786;28;20287;-66
2023/03/12 04:49:02;;;;;;;23.43;6.30;;;;;;;4.07;58.32;100246.06;5076086;28;20357;-66
2023/03/12 04:51:30;;;;;;;17.27;5.60;;;;;;;4.20;58.13;100237.28;5073159;28;20214;-66
2023/03/12 04:53:58;;;;;;;12.17;6.20;;;;;;;4.31;57.69;100226.84;5074930;28;20210;-67
2023/03/12 04:56:26;;;;;;;13.83;6.00;;;;;;;4.31;57.58;100232.09;5074930;28;20615;-67
2023/03/12 04:58:54;;;;;;;12.17;5.50;;;;;;;4.33;57.50;100230.16;5076652;28;20238;-67
2023/03/12 05:01:28;;;;;;;14.83;5.63;;;;;;;4.30;57.87;100230.41;5076369;28;20223;-66
2023/03/12 05:03:56;;;;;;;12.77;5.10;;;;;;;4.26;58.26;100231.59;5072359;28;20204;-66
2023/03/12 05:06:24;;;;;;;15.03;5.40;;;;;;;4.15;58.64;100230.59;5074401;28;20339;-69
2023/03/12 05:08:52;;;;;;;12.87;5.20;;;;;;;4.21;58.27;100236.34;5074152;28;20216;-66
2023/03/12 05:11:20;;;;;;;8.93;5.17;;;;;;;4.30;58.37;100235.66;5073839;28;20553;-67
2023/03/12 05:13:48;;;;;;;22.77;6.10;;;;;;;4.38;57.85;100238.56;5074301;28;21004;-66
2023/03/12 05:16:17;;;;;;;10.17;5.10;;;;;;;4.32;58.12;100234.56;5075677;28;20210;-66
2023/03/12 05:18:46;;;;;;;13.07;5.30;;;;;;;4.27;58.00;100233.25;5071593;28;20236;-68
2023/03/12 05:21:16;;;;;;;9.00;4.93;;;;;;;4.09;58.53;100228.41;5070672;28;20603;-67
2023/03/12 05:23:45;;;;;;;12.43;4.60;;;;;;;4.04;58.97;100225.31;5073924;28;20210;-67
2023/03/12 05:26:18;;;;;;;9.87;4.83;;;;;;;3.88;59.65;100221.25;5073883;28;20205;-67
2023/03/12 05:28:46;;;;;;;9.17;4.63;;;;;;;3.75;60.68;100226.56;5074728;28;20290;-69
2023/03/12 05:31:15;;;;;;;11.50;5.10;;;;;;;3.57;61.92;100225.28;5077159;28;20219;-69
2023/03/12 05:33:43;;;;;;;13.03;4.97;;;;;;;3.40;63.47;100232.56;5073498;28;20272;-68
2023/03/12 05:36:14;;;;;;;15.27;4.90;;;;;;;3.35;65.08;100225.94;5073446;28;20246;-66
2023/03/12 05:38:42;;;;;;;14.50;5.37;;;;;;;3.22;66.42;100228.59;5072982;28;20211;-68
2023/03/12 05:41:17;;;;;;;11.83;4.73;;;;;;;3.31;66.88;100230.59;5073494;28;20211;-67
2023/03/12 05:43:45;;;;;;;12.43;5.43;;;;;;;3.32;67.65;100237.50;5072658;28;20209;-66
2023/03/12 05:46:13;;;;;;;10.30;5.30;;;;;;;3.37;68.16;100235.38;5076315;28;20833;-66
2023/03/12 05:48:42;;;;;;;9.87;4.93;;;;;;;3.34;68.95;100230.34;5072540;28;20558;-67
2023/03/12 05:51:10;;;;;;;10.67;5.07;;;;;;;3.36;69.60;100228.47;5075742;28;20208;-66
2023/03/12 05:53:39;;;;;;;11.07;4.90;;;;;;;3.31;70.44;100230.59;5073630;28;20321;-66
2023/03/12 05:56:10;;;;;;;13.13;5.33;;;;;;;3.28;71.01;100232.56;5067013;28;20721;-69
2023/03/12 05:58:38;;;;;;;16.37;5.30;;;;;;;3.45;70.90;100231.38;5071854;28;20295;-69
2023/03/12 06:01:11;;;;;;;15.60;5.30;;;;;;;3.54;70.78;100233.34;5070988;28;20211;-69
2023/03/12 06:03:41;;;;;;;11.10;4.50;;;;;;;3.69;70.44;100227.84;5078295;28;20619;-70
2023/03/12 06:06:09;;;;;;;10.50;4.97;;;;;;;3.77;70.10;100227.31;5076999;28;20227;-69
2023/03/12 06:08:39;;;;;;;10.23;4.93;;;;;;;3.70;70.28;100236.53;5077893;28;20922;-69
2023/03/12 06:11:07;;;;;;;9.40;4.03;;;;;;;3.73;70.53;100228.47;5074881;28;20633;-69
2023/03/12 06:13:35;;;;;;;10.87;4.17;;;;;;;3.65;70.83;100233.41;5072633;28;20213;-69
2023/03/12 06:16:04;;;;;;;11.90;4.33;;;;;;;3.66;71.01;100240.34;5072162;28;20226;-69
2023/03/12 06:18:32;;;;;;;12.00;4.40;;;;;;;3.74;71.09;100244.09;5074129;28;20252;-69
2023/03/12 06:21:11;;;;;;;9.13;4.40;;;;;;;3.79;70.58;100230.63;5078097;28;20274;-69
2023/03/12 06:23:40;;;;;;;11.50;3.93;;;;;;;3.70;71.06;100241.78;5079982;28;20212;-69
2023/03/12 06:26:08;;;;;;;15.83;4.77;;;;;;;3.64;71.38;100237.00;5076308;28;20211;-71
2023/03/12 06:28:39;;;;;;;12.70;5.10;;;;;;;3.64;71.58;100237.81;5078071;28;20212;-69
2023/03/12 06:31:07;;;;;;;8.93;4.67;;;;;;;3.58;72.19;100226.94;5075702;28;20214;-70
2023/03/12 06:33:36;;;;;;;10.93;4.90;;;;;;;3.44;73.07;100225.28;5077252;28;20854;-69
2023/03/12 06:36:06;;;;;;;12.90;4.83;;;;;;;3.58;72.91;100227.78;5078386;28;20704;-69
2023/03/12 06:38:35;;;;;;;12.80;4.87;;;;;;;3.66;72.74;100227.22;5075794;28;20272;-69
2023/03/12 06:41:06;;;;;;;12.13;4.77;;;;;;;3.78;72.33;100221.13;5076435;28;20207;-69
2023/03/12 06:43:35;;;;;;;7.43;3.97;;;;;;;3.79;72.79;100217.53;5074891;28;20215;-70
2023/03/12 06:46:04;;;;;;;12.80;5.43;;;;;;;4.00;72.08;100215.97;5076476;28;20330;-69
2023/03/12 06:48:35;;;;;;;12.83;4.83;;;;;;;4.08;71.80;100216.25;5077566;28;20203;-70
2023/03/12 06:51:03;;;;;;;9.53;4.67;;;;;;;4.00;71.92;100213.34;5078543;28;20679;-70
2023/03/12 06:53:31;;;;;;;8.53;4.80;;;;;;;3.99;72.45;100216.06;5073906;28;20220;-68
2023/03/12 06:55:59;;;;;;;10.50;5.07;;;;;;;4.15;71.83;100222.72;5073475;28;20212;-69
2023/03/12 06:58:28;;;;;;;10.60;4.60;;;;;;;4.29;71.37;100215.63;5075252;28;20224;-68
2023/03/12 07:00:56;;;;;;;9.27;4.53;;;;;;;4.07;71.98;100217.19;5075952;28;20235;-69
2023/03/12 07:03:24;;;;;;;12.60;4.40;;;;;;;3.92;72.99;100215.69;5077625;28;20620;-68
2023/03/12 07:05:52;;;;;;;11.27;5.13;;;;;;;3.85;73.90;100209.22;5076501;28;20211;-68
2023/03/12 07:08:19;;;;;;;9.37;4.57;;;;;;;3.83;73.98;100205.03;5076792;28;20213;-69
2023/03/12 07:10:47;;;;;;;14.43;5.50;;;;;;;3.88;74.24;100208.16;5075592;28;20216;-69
2023/03/12 07:13:15;;;;;;;9.27;4.90;;;;;;;3.92;74.52;100210.44;5073973;28;20285;-69
2023/03/12 07:15:45;;;;;;;8.10;5.20;;;;;;;3.96;74.51;100217.13;5074983;28;20661;-69
2023/03/12 07:18:13;;;;;;;7.37;5.03;;;;;;;3.94;74.53;100219.06;5077830;28;20297;-69
2023/03/12 07:20:43;;;;;;;12.73;5.03;;;;;;;3.96;74.49;100217.13;5072347;28;20213;-69
2023/03/12 07:23:11;;;;;;;11.33;5.63;;;;;;;3.99;74.57;100213.44;5075119;28;20307;-69
2023/03/12 07:25:40;;;;;;;22.90;7.77;;;;;;;4.06;74.49;100217.28;5071286;28;20278;-69
2023/03/12 07:28:09;;;;;;;16.47;7.27;;;;;;;4.11;74.37;100213.41;5074254;28;20206;-69
2023/03/12 07:30:37;;;;;;;11.27;5.87;;;;;;;4.18;74.17;100207.69;5076091;28;20225;-70
2023/03/12 07:33:08;;;;;;;11.87;5.80;;;;;;;4.26;74.30;100207.97;5071980;28;20216;-70
2023/03/12 07:35:37;;;;;;;12.77;5.50;;;;;;;4.27;74.36;100214.88;5075654;28;21156;-70
2023/03/12 07:38:06;;;;;;;8.97;5.20;;;;;;;4.18;74.55;100219.03;5075892;28;20241;-70
2023/03/12 07:40:34;;;;;;;10.00;4.33;;;;;;;4.25;74.33;100227.28;5075798;28;20646;-69
2023/03/12 07:43:03;;;;;;;10.27;4.77;;;;;;;4.12;74.59;100222.94;5074182;28;20331;-70
2023/03/12 07:45:30;;;;;;;11.87;5.00;;;;;;;4.15;74.70;100217.47;5076437;28;20209;-70
2023/03/12 07:47:58;;;;;;;11.53;4.80;;;;;;;4.06;75.29;100220.75;5073976;28;20208;-69
2023/03/12 07:50:27;;;;;;;15.80;5.03;;;;;;;4.26;74.64;100223.69;5074552;28;20625;-70
2023/03/12 07:52:55;;;;;;;15.10;5.80;;;;;;;4.40;74.80;100223.50;5073813;28;20208;-68
2023/03/12 07:55:33;;;;;;;12.13;5.70;;;;;;;4.51;73.91;100224.38;5072650;28;20205;-69
2023/03/12 07:58:01;;;;;;;12.70;6.13;;;;;;;4.54;73.60;100223.31;5074894;28;20218;-70
2023/03/12 08:00:29;;;;;;;16.33;5.30;;;;;;;4.62;73.62;100223.56;5073217;28;20211;-69
2023/03/12 08:02:58;;;;;;;8.37;5.23;;;;;;;4.72;72.93;100227.19;5072145;28;20213;-70
2023/03/12 08:05:27;;;;;;;14.30;5.00;;;;;;;4.70;72.23;100221.19;5072751;28;20249;-69
2023/03/12 08:07:55;;;;;;;10.20;5.30;;;;;;;4.61;72.54;100224.53;5074793;28;20278;-69
2023/03/12 08:10:23;;;;;;;9.80;5.17;;;;;;;4.70;72.16;100234.34;5072800;28;20210;-71
2023/03/12 08:12:51;;;;;;;10.73;5.37;;;;;;;4.70;71.28;100223.00;5075206;28;20214;-70
2023/03/12 08:15:19;;;;;;;11.97;5.50;;;;;;;4.55;71.71;100227.63;5073155;28;20307;-70
2023/03/12 08:17:47;;;;;;;14.80;5.80;;;;;;;4.56;72.45;100226.69;5072859;28;20694;-70
2023/03/12 08:20:14;;;;;;;15.47;5.43;;;;;;;4.59;71.94;100226.44;5072188;28;20229;-69
2023/03/12 08:22:43;;;;;;;10.80;5.07;;;;;;;4.66;71.30;100238.13;5072421;28;20214;-69
2023/03/12 08:25:11;;;;;;;11.37;5.50;;;;;;;4.50;72.02;100238.47;5072665;28;20206;-70
2023/03/12 08:27:39;;;;;;;9.50;5.17;;;;;;;4.64;72.08;100244.47;5072311;28;20214;-70
2023/03/12 08:30:09;;;;;;;9.90;5.57;;;;;;;4.73;71.05;100244.63;5075571;28;20205;-71
2023/03/12 08:32:36;;;;;;;10.67;5.63;;;;;;;4.69;70.68;100240.53;5072610;28;20218;-70
2023/03/12 08:35:05;;;;;;;16.33;5.93;;;;;;;4.71;71.03;100229.91;5073918;28;20210;-71
2023/03/12 08:37:33;;;;;;;21.20;8.83;;;;;;;4.62;70.85;100225.38;5073262;28;20236;-70
2023/03/12 08:40:04;;;;;;;18.87;8.30;;;;;;;4.54;71.32;100228.56;5073679;28;20255;-69
2023/03/12 08:42:32;;;;;;;21.73;8.73;;;;;;;4.61;71.79;100228.94;5073469;28;20576;-69
2023/03/12 08:44:59;;;;;;;17.40;7.23;;;;;;;4.49;72.24;100221.03;5072148;28;20210;-70
2023/03/12 08:47:27;;;;;;;14.63;6.97;;;;;;;4.58;72.24;100224.75;5074914;28;20206;-69
2023/03/12 08:49:55;;;;;;;19.03;7.37;;;;;;;4.56;72.25;100221.44;5073293;28;20934;-69
2023/03/12 08:52:22;;;;;;;13.23;7.20;;;;;;;4.70;72.16;100221.19;5072822;28;20213;-69
2023/03/12 08:54:50;;;;;;;13.33;6.87;;;;;;;4.75;72.21;100216.41;5073333;28;20221;-69
2023/03/12 08:57:19;;;;;;;16.00;6.70;;;;;;;4.95;71.83;100206.19;5074820;28;20213;-70
2023/03/12 08:59:47;;;;;;;15.10;6.63;;;;;;;5.11;71.71;100206.66;5073245;28;20233;-70
2023/03/12 09:02:15;;;;;;;16.47;7.10;;;;;;;5.16;71.45;100215.03;5073186;28;20225;-68
2023/03/12 09:04:43;;;;;;;12.83;7.27;;;;;;;5.15;71.17;100221.25;5072793;28;20215;-70
2023/03/12 09:07:11;;;;;;;16.90;7.20;;;;;;;5.13;71.57;100210.00;5073047;28;20311;-71
2023/03/12 09:09:39;;;;;;;17.83;7.20;;;;;;;5.19;71.69;100215.63;5074392;28;20217;-70
2023/03/12 09:12:08;;;;;;;14.13;6.40;;;;;;;5.33;71.58;100214.56;5072659;28;20892;-70
2023/03/12 09:14:37;;;;;;;14.27;7.00;;;;;;;5.45;71.46;100220.66;5072646;28;20682;-71
2023/03/12 09:17:24;;;;;;;12.97;6.90;;;;;;;5.44;72.37;100221.59;5075146;28;20202;-69
2023/03/12 09:19:52;;;;;;;18.27;7.40;;;;;;;5.43;71.72;100228.66;5072469;28;20230;-69
2023/03/12 09:22:20;;;;;;;14.60;6.83;;;;;;;5.49;71.81;100225.53;5072763;28;20211;-71
2023/03/12 09:24:48;;;;;;;13.40;7.17;;;;;;;5.41;72.54;100219.19;5072535;28;20211;-70
2023/03/12 09:27:16;;;;;;;16.37;7.43;;;;;;;5.45;73.49;100226.75;5073378;28;20209;-70
2023/03/12 09:29:45;;;;;;;13.30;7.07;;;;;;;5.62;72.41;100225.41;5073330;28;20210;-71
2023/03/12 09:32:27;;;;;;;18.87;7.50;;;;;;;5.64;72.00;100216.41;5072222;28;20211;-70
2023/03/12 09:34:55;;;;;;;15.57;8.17;;;;;;;5.57;72.24;100215.22;5072277;28;20415;-70
2023/03/12 09:37:22;;;;;;;17.63;8.10;;;;;;;5.34;73.25;100208.34;5062198;28;20245;-71
2023/03/12 09:39:51;;;;;;;16.37;8.30;;;;;;;5.25;74.31;100209.06;5057756;28;20680;-72
2023/03/12 09:42:23;;;;;;;15.57;8.50;;;;;;;5.34;74.33;100234.63;5054923;28;20221;-69
2023/03/12 09:44:55;;;;;;;14.87;8.47;;;;;;;5.44;74.03;100221.59;5058909;28;20221;-70
2023/03/12 09:47:28;;;;;;;16.37;8.00;;;;;;;5.40;74.52;100234.13;5058728;28;20213;-69
2023/03/12 09:50:01;;;;;;;21.33;9.00;;;;;;;5.47;74.78;100243.22;5057654;28;21984;-69
2023/03/12 09:52:34;;;;;;;14.80;7.63;;;;;;;5.64;74.01;100234.81;5055973;28;20212;-70
2023/03/12 09:55:07;;;;;;;13.63;7.50;;;;;;;5.71;73.57;100229.94;5057245;28;20214;-69
2023/03/12 09:57:34;;;;;;;17.97;7.80;;;;;;;5.70;73.80;100236.16;5057285;28;20733;-70
2023/03/12 10:00:06;;;;;;;21.73;7.90;;;;;;;5.80;73.73;100239.72;5057824;28;20224;-70
2023/03/12 10:02:52;;;;;;;15.07;8.47;;;;;;;5.93;73.09;100247.47;5058483;28;20814;-70
2023/03/12 10:05:31;;;;;;;19.33;8.47;;;;;;;5.97;73.64;100249.75;5057622;28;20218;-71
2023/03/12 10:08:07;;;;;;;16.70;8.00;;;;;;;6.20;72.37;100266.28;5056989;28;20631;-70
2023/03/12 10:10:58;;;;;;;13.47;8.13;;;;;;;6.16;72.90;100253.50;5053929;28;20723;-70
2023/03/12 10:13:43;;;;;;;18.37;10.63;;;;;;;6.13;73.28;100257.22;5056522;28;20208;-69
2023/03/12 10:16:27;;;;;;;18.07;8.87;;;;;;;5.97;73.79;100241.84;5058887;28;20209;-69
2023/03/12 10:19:05;;;;;;;19.33;10.70;;;;;;;5.93;74.56;100244.84;5056369;28;20211;-69
2023/03/12 10:21:40;;;;;;;20.97;10.83;;;;;;;6.03;74.63;100249.25;5055487;28;20238;-70
2023/03/12 10:24:22;;;;;;;19.87;11.13;;;;;;;6.09;74.81;100247.06;5057880;28;20649;-69
2023/03/12 10:26:55;;;;;;;20.57;11.40;;;;;;;6.00;75.52;100243.38;5056328;28;20204;-71
2023/03/12 10:29:26;;;;;;;21.00;11.10;;;;;;;5.92;76.70;100248.44;5056315;28;20219;-69
2023/03/12 10:31:59;;;;;;;19.77;10.90;;;;;;;5.99;76.94;100247.81;5058317;28;20269;-69
2023/03/12 10:34:33;;;;;;;23.43;11.67;;;;;;;5.94;78.20;100247.34;5057713;28;20925;-69
2023/03/12 10:37:06;;;;;;;20.70;11.53;;;;;;;6.08;77.66;100243.59;5070361;28;20626;-69
2023/03/12 10:39:34;;;;;;;18.10;12.10;;;;;;;6.14;77.92;100243.09;5075327;28;20222;-70
2023/03/12 10:42:01;;;;;;;22.60;12.80;;;;;;;6.19;77.57;100233.03;5076368;28;20498;-70
2023/03/12 10:44:30;;;;;;;20.27;12.50;;;;;;;6.22;78.15;100238.06;5075380;28;20207;-68
2023/03/12 10:47:06;;;;;;;26.20;13.40;;;;;;;6.21;79.06;100232.91;5075485;28;20822;-69
2023/03/12 10:49:36;;;;;;;19.40;13.30;;;;;;;6.51;79.36;100229.53;5077438;28;20697;-69
2023/03/12 10:52:14;;;;;;;16.70;11.87;;;;;;;6.68;78.49;100223.69;5077393;28;20722;-69
2023/03/12 10:54:44;;;;;;;21.47;12.27;;;;;;;7.02;77.23;100230.41;5076169;28;20240;-69
2023/03/12 10:57:14;;;;;;;18.53;12.03;;;;;;;7.21;76.57;100227.03;5073384;28;20268;-70
2023/03/12 10:59:43;;;;;;;21.43;11.47;;;;;;;7.07;76.71;100235.28;5074809;28;20222;-69
2023/03/12 11:02:31;;;;;;;21.13;12.00;;;;;;;7.13;76.71;100235.56;5074943;28;20221;-69
2023/03/12 11:05:00;;;;;;;17.93;10.93;;;;;;;7.09;76.95;100234.19;5073641;28;22035;-70
2023/03/12 11:07:29;;;;;;;17.83;10.90;;;;;;;7.13;77.13;100234.75;5073280;28;20227;-70
2023/03/12 11:10:19;;;;;;;21.03;11.20;;;;;;;7.11;77.19;100237.53;5071669;28;20203;-70
2023/03/12 11:13:00;;;;;;;16.43;10.33;;;;;;;7.06;77.59;100228.31;5073955;28;20203;-70
2023/03/12 11:15:31;;;;;;;21.03;11.73;;;;;;;7.10;78.54;100214.75;5073542;28;20210;-70
2023/03/12 11:18:20;;;;;;;20.00;11.13;;;;;;;7.38;77.89;100225.56;5073791;28;20210;-68
2023/03/12 11:20:49;;;;;;;16.70;11.13;;;;;;;7.59;77.34;100236.88;5071863;28;20222;-68
2023/03/12 11:23:19;;;;;;;17.83;10.67;;;;;;;7.69;76.43;100237.72;5073279;28;20206;-67
2023/03/12 11:25:53;;;;;;;18.57;11.17;;;;;;;7.89;76.01;100233.34;5075227;28;20286;-69
2023/03/12 11:28:25;;;;;;;18.53;10.80;;;;;;;8.07;75.45;100251.97;5074948;28;20256;-69
2023/03/12 11:30:57;;;;;;;18.63;11.60;;;;;;;8.76;74.24;100243.91;5075280;28;20266;-66
2023/03/12 11:33:26;;;;;;;15.20;10.23;;;;;;;9.28;71.15;100231.94;5073904;28;20307;-68
2023/03/12 11:36:19;;;;;;;17.27;10.20;;;;;;;10.55;67.25;100231.84;5074361;28;20237;-69